sensor_id;sensor_type;location;lat;lon;timestamp;P1;durP1;ratioP1;P2;durP2;ratioP2
51332;SDS011;37417;48.118;11.734;2022-08-19T00:02:15;5.25;;;4.45;;
51332;SDS011;37417;48.118;11.734;2022-08-19T00:05:00;5.43;;;4.75;;
51332;SDS011;37417;48.118;11.734;2022-08-19T00:07:46;4.72;;;4.22;;
51332;SDS011;37417;48.118;11.734;2022-08-19T00:10:32;5.50;;;4.28;;
51332;SDS011;37417;48.118;11.734;2022-08-19T00:13:19;4.43;;;4.00;;
51332;SDS011;37417;48.118;11.734;2022-08-19T00:16:05;4.68;;;3.70;;
51332;SDS011;37417;48.118;11.734;2022-08-19T00:18:51;7.43;;;3.25;;
51332;SDS011;37417;48.118;11.734;2022-08-19T00:21:36;5.30;;;4.38;;
51332;SDS011;37417;48.118;11.734;2022-08-19T00:24:24;8.23;;;4.00;;
51332;SDS011;37417;48.118;11.734;2022-08-19T00:27:11;4.55;;;4.07;;
51332;SDS011;37417;48.118;11.734;2022-08-19T00:29:57;4.63;;;4.15;;
51332;SDS011;37417;48.118;11.734;2022-08-19T00:32:44;4.63;;;4.18;;
51332;SDS011;37417;48.118;11.734;2022-08-19T00:35:29;5.07;;;4.32;;
51332;SDS011;37417;48.118;11.734;2022-08-19T00:38:15;4.55;;;3.85;;
51332;SDS011;37417;48.118;11.734;2022-08-19T00:41:00;4.85;;;4.35;;
51332;SDS011;37417;48.118;11.734;2022-08-19T00:44:03;5.03;;;4.10;;
51332;SDS011;37417;48.118;11.734;2022-08-19T00:46:50;4.25;;;3.85;;
51332;SDS011;37417;48.118;11.734;2022-08-19T00:49:48;5.05;;;4.35;;
51332;SDS011;37417;48.118;11.734;2022-08-19T00:52:37;4.85;;;4.32;;
51332;SDS011;37417;48.118;11.734;2022-08-19T00:55:24;5.25;;;4.60;;
51332;SDS011;37417;48.118;11.734;2022-08-19T00:58:12;5.13;;;4.63;;
51332;SDS011;37417;48.118;11.734;2022-08-19T01:00:59;7.10;;;4.55;;
51332;SDS011;37417;48.118;11.734;2022-08-19T01:03:45;5.53;;;4.30;;
51332;SDS011;37417;48.118;11.734;2022-08-19T01:06:31;5.95;;;5.30;;
51332;SDS011;37417;48.118;11.734;2022-08-19T01:09:17;5.13;;;4.63;;
51332;SDS011;37417;48.118;11.734;2022-08-19T01:12:03;5.60;;;4.90;;
51332;SDS011;37417;48.118;11.734;2022-08-19T01:14:49;7.32;;;4.63;;
51332;SDS011;37417;48.118;11.734;2022-08-19T01:17:36;5.40;;;4.90;;
51332;SDS011;37417;48.118;11.734;2022-08-19T01:20:23;5.72;;;5.00;;
51332;SDS011;37417;48.118;11.734;2022-08-19T01:23:08;5.40;;;4.88;;
51332;SDS011;37417;48.118;11.734;2022-08-19T01:25:54;5.18;;;4.68;;
51332;SDS011;37417;48.118;11.734;2022-08-19T01:28:41;5.57;;;4.35;;
51332;SDS011;37417;48.118;11.734;2022-08-19T01:31:27;6.22;;;5.07;;
51332;SDS011;37417;48.118;11.734;2022-08-19T01:34:15;6.47;;;4.78;;
51332;SDS011;37417;48.118;11.734;2022-08-19T01:37:05;6.47;;;4.75;;
51332;SDS011;37417;48.118;11.734;2022-08-19T01:39:52;4.47;;;4.07;;
51332;SDS011;37417;48.118;11.734;2022-08-19T01:42:38;6.38;;;5.20;;
51332;SDS011;37417;48.118;11.734;2022-08-19T01:45:25;5.75;;;4.38;;
51332;SDS011;37417;48.118;11.734;2022-08-19T01:48:11;4.95;;;4.45;;
51332;SDS011;37417;48.118;11.734;2022-08-19T01:50:57;5.70;;;4.10;;
51332;SDS011;37417;48.118;11.734;2022-08-19T01:53:45;5.53;;;3.53;;
51332;SDS011;37417;48.118;11.734;2022-08-19T01:56:31;8.13;;;4.53;;
51332;SDS011;37417;48.118;11.734;2022-08-19T01:59:19;5.35;;;4.15;;
51332;SDS011;37417;48.118;11.734;2022-08-19T02:02:05;5.60;;;4.22;;
51332;SDS011;37417;48.118;11.734;2022-08-19T02:04:54;4.20;;;3.75;;
51332;SDS011;37417;48.118;11.734;2022-08-19T02:07:40;6.25;;;4.07;;
51332;SDS011;37417;48.118;11.734;2022-08-19T02:10:25;4.35;;;3.65;;
51332;SDS011;37417;48.118;11.734;2022-08-19T02:13:11;5.50;;;3.78;;
51332;SDS011;37417;48.118;11.734;2022-08-19T02:15:57;7.28;;;3.83;;
51332;SDS011;37417;48.118;11.734;2022-08-19T02:18:43;4.43;;;4.03;;
51332;SDS011;37417;48.118;11.734;2022-08-19T02:21:29;4.25;;;3.83;;
51332;SDS011;37417;48.118;11.734;2022-08-19T02:24:14;5.65;;;4.30;;
51332;SDS011;37417;48.118;11.734;2022-08-19T02:27:00;4.28;;;3.78;;
51332;SDS011;37417;48.118;11.734;2022-08-19T02:29:46;5.55;;;3.70;;
51332;SDS011;37417;48.118;11.734;2022-08-19T02:32:32;3.40;;;3.10;;
51332;SDS011;37417;48.118;11.734;2022-08-19T02:35:18;4.15;;;3.75;;
51332;SDS011;37417;48.118;11.734;2022-08-19T02:38:04;4.68;;;3.25;;
51332;SDS011;37417;48.118;11.734;2022-08-19T02:41:12;4.18;;;3.30;;
51332;SDS011;37417;48.118;11.734;2022-08-19T02:43:59;5.30;;;3.67;;
51332;SDS011;37417;48.118;11.734;2022-08-19T02:46:46;4.10;;;3.60;;
51332;SDS011;37417;48.118;11.734;2022-08-19T02:49:32;4.47;;;3.92;;
51332;SDS011;37417;48.118;11.734;2022-08-19T02:52:18;4.18;;;3.78;;
51332;SDS011;37417;48.118;11.734;2022-08-19T02:55:03;4.18;;;3.78;;
51332;SDS011;37417;48.118;11.734;2022-08-19T02:57:49;4.57;;;3.55;;
51332;SDS011;37417;48.118;11.734;2022-08-19T03:00:35;5.88;;;3.60;;
51332;SDS011;37417;48.118;11.734;2022-08-19T03:03:20;5.68;;;3.50;;
51332;SDS011;37417;48.118;11.734;2022-08-19T03:06:10;4.30;;;3.65;;
51332;SDS011;37417;48.118;11.734;2022-08-19T03:08:57;5.10;;;4.25;;
51332;SDS011;37417;48.118;11.734;2022-08-19T03:11:43;4.85;;;4.35;;
51332;SDS011;37417;48.118;11.734;2022-08-19T03:14:32;4.97;;;4.47;;
51332;SDS011;37417;48.118;11.734;2022-08-19T03:17:18;5.22;;;4.20;;
51332;SDS011;37417;48.118;11.734;2022-08-19T03:20:04;4.63;;;4.22;;
51332;SDS011;37417;48.118;11.734;2022-08-19T03:22:49;4.90;;;4.45;;
51332;SDS011;37417;48.118;11.734;2022-08-19T03:25:39;6.45;;;4.22;;
51332;SDS011;37417;48.118;11.734;2022-08-19T03:28:28;5.28;;;4.20;;
51332;SDS011;37417;48.118;11.734;2022-08-19T03:31:13;5.72;;;4.20;;
51332;SDS011;37417;48.118;11.734;2022-08-19T03:33:59;4.55;;;4.07;;
51332;SDS011;37417;48.118;11.734;2022-08-19T03:36:45;4.50;;;3.97;;
51332;SDS011;37417;48.118;11.734;2022-08-19T03:39:31;6.28;;;3.88;;
51332;SDS011;37417;48.118;11.734;2022-08-19T03:42:16;4.05;;;3.63;;
51332;SDS011;37417;48.118;11.734;2022-08-19T03:45:02;4.32;;;3.70;;
51332;SDS011;37417;48.118;11.734;2022-08-19T03:47:48;4.22;;;3.80;;
51332;SDS011;37417;48.118;11.734;2022-08-19T03:50:37;4.13;;;3.65;;
51332;SDS011;37417;48.118;11.734;2022-08-19T03:53:23;4.18;;;3.78;;
51332;SDS011;37417;48.118;11.734;2022-08-19T03:56:09;4.40;;;4.00;;
51332;SDS011;37417;48.118;11.734;2022-08-19T03:58:55;5.30;;;3.50;;
51332;SDS011;37417;48.118;11.734;2022-08-19T04:01:41;4.10;;;3.30;;
51332;SDS011;37417;48.118;11.734;2022-08-19T04:04:27;3.97;;;3.58;;
51332;SDS011;37417;48.118;11.734;2022-08-19T04:07:14;4.30;;;3.80;;
51332;SDS011;37417;48.118;11.734;2022-08-19T04:10:03;4.75;;;4.25;;
51332;SDS011;37417;48.118;11.734;2022-08-19T04:12:49;6.20;;;3.83;;
51332;SDS011;37417;48.118;11.734;2022-08-19T04:15:38;4.05;;;3.47;;
51332;SDS011;37417;48.118;11.734;2022-08-19T04:18:26;4.97;;;3.97;;
51332;SDS011;37417;48.118;11.734;2022-08-19T04:21:18;5.10;;;3.90;;
51332;SDS011;37417;48.118;11.734;2022-08-19T04:24:04;5.03;;;3.53;;
51332;SDS011;37417;48.118;11.734;2022-08-19T04:26:50;4.03;;;3.28;;
51332;SDS011;37417;48.118;11.734;2022-08-19T04:29:35;3.72;;;3.30;;
51332;SDS011;37417;48.118;11.734;2022-08-19T04:32:24;4.07;;;3.40;;
51332;SDS011;37417;48.118;11.734;2022-08-19T04:35:10;4.43;;;3.50;;
51332;SDS011;37417;48.118;11.734;2022-08-19T04:37:55;4.45;;;3.55;;
51332;SDS011;37417;48.118;11.734;2022-08-19T04:40:41;7.00;;;3.90;;
51332;SDS011;37417;48.118;11.734;2022-08-19T04:43:46;4.63;;;3.60;;
51332;SDS011;37417;48.118;11.734;2022-08-19T04:46:33;5.97;;;3.88;;
51332;SDS011;37417;48.118;11.734;2022-08-19T04:49:20;4.43;;;3.08;;
51332;SDS011;37417;48.118;11.734;2022-08-19T04:52:07;4.50;;;4.03;;
51332;SDS011;37417;48.118;11.734;2022-08-19T04:54:53;5.57;;;3.20;;
51332;SDS011;37417;48.118;11.734;2022-08-19T04:57:40;3.47;;;3.03;;
51332;SDS011;37417;48.118;11.734;2022-08-19T05:00:26;4.10;;;3.33;;
51332;SDS011;37417;48.118;11.734;2022-08-19T05:03:11;3.35;;;2.92;;
51332;SDS011;37417;48.118;11.734;2022-08-19T05:05:58;6.25;;;3.10;;
51332;SDS011;37417;48.118;11.734;2022-08-19T05:08:44;3.72;;;3.40;;
51332;SDS011;37417;48.118;11.734;2022-08-19T05:11:32;4.10;;;3.45;;
51332;SDS011;37417;48.118;11.734;2022-08-19T05:14:17;4.05;;;3.60;;
51332;SDS011;37417;48.118;11.734;2022-08-19T05:17:03;3.58;;;3.00;;
51332;SDS011;37417;48.118;11.734;2022-08-19T05:19:49;6.10;;;4.05;;
51332;SDS011;37417;48.118;11.734;2022-08-19T05:22:53;4.70;;;4.03;;
51332;SDS011;37417;48.118;11.734;2022-08-19T05:25:39;4.40;;;3.33;;
51332;SDS011;37417;48.118;11.734;2022-08-19T05:28:25;7.13;;;4.45;;
51332;SDS011;37417;48.118;11.734;2022-08-19T05:31:10;5.32;;;4.28;;
51332;SDS011;37417;48.118;11.734;2022-08-19T05:33:56;6.00;;;4.75;;
51332;SDS011;37417;48.118;11.734;2022-08-19T05:36:44;4.65;;;4.15;;
51332;SDS011;37417;48.118;11.734;2022-08-19T05:39:31;4.22;;;3.83;;
51332;SDS011;37417;48.118;11.734;2022-08-19T05:42:17;3.95;;;3.33;;
51332;SDS011;37417;48.118;11.734;2022-08-19T05:45:05;5.65;;;4.05;;
51332;SDS011;37417;48.118;11.734;2022-08-19T05:47:51;4.05;;;3.60;;
51332;SDS011;37417;48.118;11.734;2022-08-19T05:50:38;4.07;;;3.63;;
51332;SDS011;37417;48.118;11.734;2022-08-19T05:53:23;4.50;;;3.83;;
51332;SDS011;37417;48.118;11.734;2022-08-19T05:56:10;3.90;;;3.58;;
51332;SDS011;37417;48.118;11.734;2022-08-19T05:58:57;5.00;;;3.55;;
51332;SDS011;37417;48.118;11.734;2022-08-19T06:01:44;7.53;;;4.68;;
51332;SDS011;37417;48.118;11.734;2022-08-19T06:04:30;5.70;;;4.55;;
51332;SDS011;37417;48.118;11.734;2022-08-19T06:07:16;6.78;;;4.68;;
51332;SDS011;37417;48.118;11.734;2022-08-19T06:10:03;5.55;;;4.93;;
51332;SDS011;37417;48.118;11.734;2022-08-19T06:12:49;8.30;;;4.72;;
51332;SDS011;37417;48.118;11.734;2022-08-19T06:15:34;9.70;;;5.15;;
51332;SDS011;37417;48.118;11.734;2022-08-19T06:18:20;9.18;;;4.68;;
51332;SDS011;37417;48.118;11.734;2022-08-19T06:21:05;6.07;;;4.78;;
51332;SDS011;37417;48.118;11.734;2022-08-19T06:23:51;7.25;;;5.40;;
51332;SDS011;37417;48.118;11.734;2022-08-19T06:26:38;5.47;;;4.70;;
51332;SDS011;37417;48.118;11.734;2022-08-19T06:29:25;9.75;;;5.00;;
51332;SDS011;37417;48.118;11.734;2022-08-19T06:32:11;6.97;;;4.88;;
51332;SDS011;37417;48.118;11.734;2022-08-19T06:34:57;8.00;;;5.00;;
51332;SDS011;37417;48.118;11.734;2022-08-19T06:37:42;6.55;;;5.70;;
51332;SDS011;37417;48.118;11.734;2022-08-19T06:40:28;7.95;;;5.35;;
51332;SDS011;37417;48.118;11.734;2022-08-19T06:43:13;8.93;;;5.80;;
51332;SDS011;37417;48.118;11.734;2022-08-19T06:46:01;9.52;;;6.68;;
51332;SDS011;37417;48.118;11.734;2022-08-19T06:48:48;10.32;;;6.78;;
51332;SDS011;37417;48.118;11.734;2022-08-19T06:51:34;8.75;;;7.38;;
51332;SDS011;37417;48.118;11.734;2022-08-19T06:54:20;11.57;;;8.43;;
51332;SDS011;37417;48.118;11.734;2022-08-19T06:57:05;10.80;;;7.78;;
51332;SDS011;37417;48.118;11.734;2022-08-19T06:59:52;12.00;;;7.78;;
51332;SDS011;37417;48.118;11.734;2022-08-19T07:02:38;9.60;;;7.53;;
51332;SDS011;37417;48.118;11.734;2022-08-19T07:05:23;9.48;;;8.07;;
51332;SDS011;37417;48.118;11.734;2022-08-19T07:08:09;14.25;;;7.78;;
51332;SDS011;37417;48.118;11.734;2022-08-19T07:10:55;10.82;;;8.07;;
51332;SDS011;37417;48.118;11.734;2022-08-19T07:13:40;11.23;;;9.02;;
51332;SDS011;37417;48.118;11.734;2022-08-19T07:16:28;10.20;;;8.75;;
51332;SDS011;37417;48.118;11.734;2022-08-19T07:19:14;9.77;;;7.85;;
51332;SDS011;37417;48.118;11.734;2022-08-19T07:22:01;12.77;;;8.85;;
51332;SDS011;37417;48.118;11.734;2022-08-19T07:24:47;11.90;;;9.52;;
51332;SDS011;37417;48.118;11.734;2022-08-19T07:27:32;12.52;;;9.27;;
51332;SDS011;37417;48.118;11.734;2022-08-19T07:30:19;9.88;;;8.07;;
51332;SDS011;37417;48.118;11.734;2022-08-19T07:33:04;10.18;;;8.70;;
51332;SDS011;37417;48.118;11.734;2022-08-19T07:35:50;12.95;;;9.13;;
51332;SDS011;37417;48.118;11.734;2022-08-19T07:38:35;13.93;;;8.70;;
51332;SDS011;37417;48.118;11.734;2022-08-19T07:41:22;9.50;;;8.50;;
51332;SDS011;37417;48.118;11.734;2022-08-19T07:44:08;11.27;;;9.43;;
51332;SDS011;37417;48.118;11.734;2022-08-19T07:46:54;12.32;;;9.80;;
51332;SDS011;37417;48.118;11.734;2022-08-19T07:49:40;12.02;;;9.43;;
51332;SDS011;37417;48.118;11.734;2022-08-19T07:52:27;11.73;;;9.73;;
51332;SDS011;37417;48.118;11.734;2022-08-19T07:55:13;10.90;;;9.68;;
51332;SDS011;37417;48.118;11.734;2022-08-19T07:57:58;10.68;;;9.13;;
51332;SDS011;37417;48.118;11.734;2022-08-19T08:00:45;11.50;;;9.05;;
51332;SDS011;37417;48.118;11.734;2022-08-19T08:03:31;13.32;;;9.68;;
51332;SDS011;37417;48.118;11.734;2022-08-19T08:06:35;13.88;;;9.65;;
51332;SDS011;37417;48.118;11.734;2022-08-19T08:09:40;10.63;;;9.00;;
51332;SDS011;37417;48.118;11.734;2022-08-19T08:12:28;11.98;;;9.85;;
51332;SDS011;37417;48.118;11.734;2022-08-19T08:15:15;15.40;;;10.02;;
51332;SDS011;37417;48.118;11.734;2022-08-19T08:18:01;13.52;;;9.57;;
51332;SDS011;37417;48.118;11.734;2022-08-19T08:20:47;12.68;;;10.32;;
51332;SDS011;37417;48.118;11.734;2022-08-19T08:23:33;14.75;;;10.10;;
51332;SDS011;37417;48.118;11.734;2022-08-19T08:26:18;12.68;;;9.98;;
51332;SDS011;37417;48.118;11.734;2022-08-19T08:29:04;11.98;;;10.18;;
51332;SDS011;37417;48.118;11.734;2022-08-19T08:31:49;12.25;;;10.20;;
51332;SDS011;37417;48.118;11.734;2022-08-19T08:34:35;15.00;;;10.32;;
51332;SDS011;37417;48.118;11.734;2022-08-19T08:37:22;12.00;;;10.05;;
51332;SDS011;37417;48.118;11.734;2022-08-19T08:46:02;15.07;;;8.93;;
51332;SDS011;37417;48.118;11.734;2022-08-19T08:48:49;12.45;;;9.30;;
51332;SDS011;37417;48.118;11.734;2022-08-19T08:51:39;11.48;;;9.70;;
51332;SDS011;37417;48.118;11.734;2022-08-19T08:54:28;11.80;;;9.60;;
51332;SDS011;37417;48.118;11.734;2022-08-19T08:57:18;11.57;;;9.55;;
51332;SDS011;37417;48.118;11.734;2022-08-19T09:00:06;14.02;;;10.60;;
51332;SDS011;37417;48.118;11.734;2022-08-19T09:02:52;11.60;;;9.55;;
51332;SDS011;37417;48.118;11.734;2022-08-19T09:06:01;13.07;;;10.32;;
51332;SDS011;37417;48.118;11.734;2022-08-19T09:08:47;12.70;;;9.05;;
51332;SDS011;37417;48.118;11.734;2022-08-19T09:15:04;13.75;;;10.55;;
51332;SDS011;37417;48.118;11.734;2022-08-19T09:17:29;14.45;;;10.20;;
51332;SDS011;37417;48.118;11.734;2022-08-19T09:20:20;14.35;;;10.60;;
51332;SDS011;37417;48.118;11.734;2022-08-19T09:23:06;16.20;;;11.07;;
51332;SDS011;37417;48.118;11.734;2022-08-19T09:25:51;15.80;;;12.48;;
51332;SDS011;37417;48.118;11.734;2022-08-19T09:28:37;16.50;;;12.07;;
51332;SDS011;37417;48.118;11.734;2022-08-19T09:31:24;18.17;;;12.00;;
51332;SDS011;37417;48.118;11.734;2022-08-19T09:34:09;15.65;;;12.60;;
51332;SDS011;37417;48.118;11.734;2022-08-19T09:36:55;14.25;;;10.38;;
51332;SDS011;37417;48.118;11.734;2022-08-19T09:39:43;17.35;;;11.02;;
51332;SDS011;37417;48.118;11.734;2022-08-19T09:42:29;13.82;;;10.57;;
51332;SDS011;37417;48.118;11.734;2022-08-19T09:45:15;19.27;;;12.07;;
51332;SDS011;37417;48.118;11.734;2022-08-19T09:48:02;14.57;;;11.63;;
51332;SDS011;37417;48.118;11.734;2022-08-19T09:50:48;14.70;;;11.85;;
51332;SDS011;37417;48.118;11.734;2022-08-19T09:53:35;13.70;;;10.80;;
51332;SDS011;37417;48.118;11.734;2022-08-19T09:56:21;9.88;;;7.82;;
51332;SDS011;37417;48.118;11.734;2022-08-19T09:59:07;9.15;;;7.50;;
51332;SDS011;37417;48.118;11.734;2022-08-19T10:01:53;11.40;;;8.05;;
51332;SDS011;37417;48.118;11.734;2022-08-19T10:04:39;7.72;;;6.97;;
51332;SDS011;37417;48.118;11.734;2022-08-19T10:07:43;7.80;;;6.22;;
51332;SDS011;37417;48.118;11.734;2022-08-19T10:10:28;9.85;;;6.82;;
51332;SDS011;37417;48.118;11.734;2022-08-19T10:13:14;8.52;;;6.40;;
51332;SDS011;37417;48.118;11.734;2022-08-19T10:16:07;8.20;;;7.05;;
51332;SDS011;37417;48.118;11.734;2022-08-19T10:18:54;7.40;;;6.40;;
51332;SDS011;37417;48.118;11.734;2022-08-19T10:21:39;7.45;;;6.68;;
51332;SDS011;37417;48.118;11.734;2022-08-19T10:24:25;6.97;;;6.28;;
51332;SDS011;37417;48.118;11.734;2022-08-19T10:27:12;6.00;;;5.40;;
51332;SDS011;37417;48.118;11.734;2022-08-19T10:29:59;4.97;;;4.47;;
51332;SDS011;37417;48.118;11.734;2022-08-19T10:32:44;6.45;;;5.32;;
51332;SDS011;37417;48.118;11.734;2022-08-19T10:35:31;7.95;;;4.93;;
51332;SDS011;37417;48.118;11.734;2022-08-19T10:38:16;6.38;;;4.45;;
51332;SDS011;37417;48.118;11.734;2022-08-19T10:41:09;5.47;;;4.95;;
51332;SDS011;37417;48.118;11.734;2022-08-19T10:43:56;4.40;;;3.97;;
51332;SDS011;37417;48.118;11.734;2022-08-19T10:46:43;5.15;;;4.65;;
51332;SDS011;37417;48.118;11.734;2022-08-19T10:49:32;6.03;;;5.38;;
51332;SDS011;37417;48.118;11.734;2022-08-19T10:52:38;6.93;;;4.82;;
51332;SDS011;37417;48.118;11.734;2022-08-19T10:55:24;7.88;;;4.10;;
51332;SDS011;37417;48.118;11.734;2022-08-19T10:58:28;4.40;;;3.97;;
51332;SDS011;37417;48.118;11.734;2022-08-19T11:01:14;7.05;;;4.78;;
51332;SDS011;37417;48.118;11.734;2022-08-19T11:04:00;4.85;;;4.35;;
51332;SDS011;37417;48.118;11.734;2022-08-19T11:06:47;4.55;;;4.10;;
51332;SDS011;37417;48.118;11.734;2022-08-19T11:09:36;7.75;;;4.70;;
51332;SDS011;37417;48.118;11.734;2022-08-19T11:12:24;5.63;;;4.20;;
51332;SDS011;37417;48.118;11.734;2022-08-19T11:15:09;8.38;;;4.38;;
51332;SDS011;37417;48.118;11.734;2022-08-19T11:17:56;5.55;;;4.88;;
51332;SDS011;37417;48.118;11.734;2022-08-19T11:20:41;4.38;;;3.92;;
51332;SDS011;37417;48.118;11.734;2022-08-19T11:23:27;5.22;;;4.28;;
51332;SDS011;37417;48.118;11.734;2022-08-19T11:26:13;4.55;;;4.15;;
51332;SDS011;37417;48.118;11.734;2022-08-19T11:28:59;4.80;;;4.40;;
51332;SDS011;37417;48.118;11.734;2022-08-19T11:31:45;5.15;;;4.65;;
51332;SDS011;37417;48.118;11.734;2022-08-19T11:34:31;4.93;;;4.15;;
51332;SDS011;37417;48.118;11.734;2022-08-19T11:37:17;5.97;;;4.63;;
51332;SDS011;37417;48.118;11.734;2022-08-19T11:40:03;7.78;;;5.80;;
51332;SDS011;37417;48.118;11.734;2022-08-19T11:42:49;5.18;;;4.68;;
51332;SDS011;37417;48.118;11.734;2022-08-19T11:45:41;5.25;;;4.07;;
51332;SDS011;37417;48.118;11.734;2022-08-19T11:48:26;5.40;;;4.90;;
51332;SDS011;37417;48.118;11.734;2022-08-19T11:51:13;4.55;;;3.97;;
51332;SDS011;37417;48.118;11.734;2022-08-19T11:53:59;4.43;;;4.00;;
51332;SDS011;37417;48.118;11.734;2022-08-19T11:56:45;4.47;;;3.92;;
51332;SDS011;37417;48.118;11.734;2022-08-19T11:59:31;7.07;;;3.83;;
51332;SDS011;37417;48.118;11.734;2022-08-19T12:02:17;4.53;;;3.88;;
51332;SDS011;37417;48.118;11.734;2022-08-19T12:05:02;7.90;;;6.80;;
51332;SDS011;37417;48.118;11.734;2022-08-19T12:07:48;7.95;;;6.45;;
51332;SDS011;37417;48.118;11.734;2022-08-19T12:10:34;7.68;;;6.25;;
51332;SDS011;37417;48.118;11.734;2022-08-19T12:13:20;6.88;;;5.93;;
51332;SDS011;37417;48.118;11.734;2022-08-19T12:16:09;7.38;;;6.38;;
51332;SDS011;37417;48.118;11.734;2022-08-19T12:18:56;5.57;;;4.53;;
51332;SDS011;37417;48.118;11.734;2022-08-19T12:21:43;5.10;;;4.60;;
51332;SDS011;37417;48.118;11.734;2022-08-19T12:24:32;3.97;;;3.55;;
51332;SDS011;37417;48.118;11.734;2022-08-19T12:27:18;4.18;;;3.65;;
51332;SDS011;37417;48.118;11.734;2022-08-19T12:30:03;3.25;;;2.95;;
51332;SDS011;37417;48.118;11.734;2022-08-19T12:32:49;3.10;;;2.60;;
51332;SDS011;37417;48.118;11.734;2022-08-19T12:35:39;1.95;;;1.77;;
51332;SDS011;37417;48.118;11.734;2022-08-19T12:38:24;1.80;;;1.70;;
51332;SDS011;37417;48.118;11.734;2022-08-19T12:41:11;1.67;;;1.48;;
51332;SDS011;37417;48.118;11.734;2022-08-19T12:43:57;1.80;;;1.60;;
51332;SDS011;37417;48.118;11.734;2022-08-19T12:46:43;1.75;;;1.17;;
51332;SDS011;37417;48.118;11.734;2022-08-19T12:49:29;1.02;;;0.95;;
51332;SDS011;37417;48.118;11.734;2022-08-19T12:52:15;1.17;;;1.08;;
51332;SDS011;37417;48.118;11.734;2022-08-19T12:55:02;1.05;;;0.80;;
51332;SDS011;37417;48.118;11.734;2022-08-19T12:57:48;0.75;;;0.75;;
51332;SDS011;37417;48.118;11.734;2022-08-19T13:00:34;0.82;;;0.75;;
51332;SDS011;37417;48.118;11.734;2022-08-19T13:03:20;0.50;;;0.50;;
51332;SDS011;37417;48.118;11.734;2022-08-19T13:06:07;1.50;;;0.50;;
51332;SDS011;37417;48.118;11.734;2022-08-19T13:08:54;0.60;;;0.60;;
51332;SDS011;37417;48.118;11.734;2022-08-19T13:11:39;0.82;;;0.70;;
51332;SDS011;37417;48.118;11.734;2022-08-19T13:14:25;0.52;;;0.52;;
51332;SDS011;37417;48.118;11.734;2022-08-19T13:17:10;2.47;;;0.40;;
51332;SDS011;37417;48.118;11.734;2022-08-19T13:19:56;0.40;;;0.30;;
51332;SDS011;37417;48.118;11.734;2022-08-19T13:22:42;1.08;;;0.57;;
51332;SDS011;37417;48.118;11.734;2022-08-19T13:25:30;0.82;;;0.52;;
51332;SDS011;37417;48.118;11.734;2022-08-19T13:28:15;0.63;;;0.60;;
51332;SDS011;37417;48.118;11.734;2022-08-19T13:31:01;1.15;;;0.52;;
51332;SDS011;37417;48.118;11.734;2022-08-19T13:34:05;0.65;;;0.65;;
51332;SDS011;37417;48.118;11.734;2022-08-19T13:36:52;0.52;;;0.50;;
51332;SDS011;37417;48.118;11.734;2022-08-19T13:39:37;0.65;;;0.55;;
51332;SDS011;37417;48.118;11.734;2022-08-19T13:42:23;1.95;;;0.68;;
51332;SDS011;37417;48.118;11.734;2022-08-19T13:45:09;0.90;;;0.70;;
51332;SDS011;37417;48.118;11.734;2022-08-19T13:47:56;2.38;;;0.60;;
51332;SDS011;37417;48.118;11.734;2022-08-19T13:50:43;0.50;;;0.50;;
51332;SDS011;37417;48.118;11.734;2022-08-19T13:53:29;0.95;;;0.52;;
51332;SDS011;37417;48.118;11.734;2022-08-19T13:56:16;0.95;;;0.50;;
51332;SDS011;37417;48.118;11.734;2022-08-19T13:59:04;0.57;;;0.57;;
51332;SDS011;37417;48.118;11.734;2022-08-19T14:01:50;1.10;;;0.70;;
51332;SDS011;37417;48.118;11.734;2022-08-19T14:04:36;1.15;;;0.65;;
51332;SDS011;37417;48.118;11.734;2022-08-19T14:07:22;1.38;;;0.70;;
51332;SDS011;37417;48.118;11.734;2022-08-19T14:10:10;0.55;;;0.55;;
51332;SDS011;37417;48.118;11.734;2022-08-19T14:12:57;0.80;;;0.70;;
51332;SDS011;37417;48.118;11.734;2022-08-19T14:15:43;0.65;;;0.65;;
51332;SDS011;37417;48.118;11.734;2022-08-19T14:18:29;0.73;;;0.73;;
51332;SDS011;37417;48.118;11.734;2022-08-19T14:21:16;1.77;;;1.02;;
51332;SDS011;37417;48.118;11.734;2022-08-19T14:24:02;2.08;;;1.27;;
51332;SDS011;37417;48.118;11.734;2022-08-19T14:26:48;1.40;;;1.10;;
51332;SDS011;37417;48.118;11.734;2022-08-19T14:29:34;3.92;;;1.02;;
51332;SDS011;37417;48.118;11.734;2022-08-19T14:32:19;1.42;;;1.33;;
51332;SDS011;37417;48.118;11.734;2022-08-19T14:35:05;1.85;;;1.27;;
51332;SDS011;37417;48.118;11.734;2022-08-19T14:37:52;1.58;;;1.30;;
51332;SDS011;37417;48.118;11.734;2022-08-19T14:40:40;1.85;;;1.10;;
51332;SDS011;37417;48.118;11.734;2022-08-19T14:43:27;2.30;;;1.23;;
51332;SDS011;37417;48.118;11.734;2022-08-19T14:46:13;1.20;;;1.10;;
51332;SDS011;37417;48.118;11.734;2022-08-19T14:49:00;1.63;;;1.30;;
51332;SDS011;37417;48.118;11.734;2022-08-19T14:51:46;1.05;;;0.88;;
51332;SDS011;37417;48.118;11.734;2022-08-19T14:54:32;1.13;;;1.02;;
51332;SDS011;37417;48.118;11.734;2022-08-19T14:57:17;1.63;;;1.42;;
51332;SDS011;37417;48.118;11.734;2022-08-19T15:00:03;2.00;;;1.50;;
51332;SDS011;37417;48.118;11.734;2022-08-19T15:02:49;1.63;;;1.45;;
51332;SDS011;37417;48.118;11.734;2022-08-19T15:05:35;1.52;;;1.40;;
51332;SDS011;37417;48.118;11.734;2022-08-19T15:08:21;3.03;;;1.50;;
51332;SDS011;37417;48.118;11.734;2022-08-19T15:11:14;1.98;;;1.40;;
51332;SDS011;37417;48.118;11.734;2022-08-19T15:14:00;1.63;;;1.52;;
51332;SDS011;37417;48.118;11.734;2022-08-19T15:16:46;2.05;;;1.85;;
51332;SDS011;37417;48.118;11.734;2022-08-19T15:19:32;1.92;;;1.50;;
51332;SDS011;37417;48.118;11.734;2022-08-19T15:22:18;2.35;;;2.15;;
51332;SDS011;37417;48.118;11.734;2022-08-19T15:25:04;1.75;;;1.65;;
51332;SDS011;37417;48.118;11.734;2022-08-19T15:27:50;1.88;;;1.60;;
51332;SDS011;37417;48.118;11.734;2022-08-19T15:30:38;1.70;;;1.60;;
51332;SDS011;37417;48.118;11.734;2022-08-19T15:33:24;1.70;;;1.60;;
51332;SDS011;37417;48.118;11.734;2022-08-19T15:36:10;1.58;;;1.20;;
51332;SDS011;37417;48.118;11.734;2022-08-19T15:38:57;1.73;;;1.30;;
51332;SDS011;37417;48.118;11.734;2022-08-19T15:41:42;2.05;;;1.50;;
51332;SDS011;37417;48.118;11.734;2022-08-19T15:44:28;1.70;;;1.55;;
51332;SDS011;37417;48.118;11.734;2022-08-19T15:47:14;3.78;;;1.88;;
51332;SDS011;37417;48.118;11.734;2022-08-19T15:49:59;1.58;;;1.48;;
51332;SDS011;37417;48.118;11.734;2022-08-19T15:52:46;1.95;;;1.83;;
51332;SDS011;37417;48.118;11.734;2022-08-19T15:55:33;4.68;;;2.45;;
51332;SDS011;37417;48.118;11.734;2022-08-19T15:58:19;2.97;;;1.95;;
51332;SDS011;37417;48.118;11.734;2022-08-19T16:01:24;2.25;;;1.95;;
51332;SDS011;37417;48.118;11.734;2022-08-19T16:04:15;2.25;;;2.05;;
51332;SDS011;37417;48.118;11.734;2022-08-19T16:07:24;2.22;;;2.03;;
51332;SDS011;37417;48.118;11.734;2022-08-19T16:10:09;2.80;;;2.60;;
51332;SDS011;37417;48.118;11.734;2022-08-19T16:12:56;3.42;;;3.13;;
51332;SDS011;37417;48.118;11.734;2022-08-19T16:15:42;4.53;;;2.83;;
51332;SDS011;37417;48.118;11.734;2022-08-19T16:18:29;3.90;;;3.35;;
51332;SDS011;37417;48.118;11.734;2022-08-19T16:21:15;5.05;;;3.70;;
51332;SDS011;37417;48.118;11.734;2022-08-19T16:24:04;3.90;;;3.60;;
51332;SDS011;37417;48.118;11.734;2022-08-19T16:26:50;4.22;;;3.42;;
51332;SDS011;37417;48.118;11.734;2022-08-19T16:29:36;5.35;;;4.88;;
51332;SDS011;37417;48.118;11.734;2022-08-19T16:32:21;4.63;;;4.15;;
51332;SDS011;37417;48.118;11.734;2022-08-19T16:35:07;6.72;;;4.22;;
51332;SDS011;37417;48.118;11.734;2022-08-19T16:37:52;3.63;;;3.17;;